Galesville, Maryland
Current Conditions -  °F | °C
As of 2:54 AM on Saturday 25 Oct 2014 (Local Time) from KNAK Reporting Station
Clear Clear  
Wind Chill: 51°   Ceiling: Unl
Heat Index: 51°   Visibility: 10mi
Dew Point: 38°   Wind: 5mph
Humidity: 61%   Direction: 280°W
Pressure: 29.94"   Gusts: NA
Location:  38.84°N, 76.54°W
Report Text: KNAK 250654Z AUTO 28004KT 10SM CLR 11/03 A2994 RMK AO2 SLP140 T01060033
Loading
Personal Weather Stations






























Interactive Weather Map
Tropical Storm Tracking
New forecast layout! Learn more

10-Day Weather Forecast

Advertisements
Track Severe Weather on mobile